createdAt,value
2019-04-14T00:01:10.836Z,12.03
2019-04-14T00:03:58.652Z,11.83
2019-04-14T00:06:28.689Z,12.37
2019-04-14T00:08:58.663Z,11.77
2019-04-14T00:11:28.067Z,12.10
2019-04-14T00:13:57.394Z,12.10
2019-04-14T00:16:27.029Z,11.50
2019-04-14T00:18:56.341Z,11.70
2019-04-14T00:21:26.096Z,11.53
2019-04-14T00:23:56.553Z,12.10
2019-04-14T00:26:29.308Z,11.80
2019-04-14T00:29:00.053Z,12.00
2019-04-14T00:31:30.716Z,11.43
2019-04-14T00:34:07.243Z,12.33
2019-04-14T00:36:48.790Z,12.73
2019-04-14T00:39:22.641Z,12.17
2019-04-14T00:42:23.447Z,12.63
2019-04-14T00:45:02.872Z,11.97
2019-04-14T00:47:48.436Z,12.63
2019-04-14T00:50:08.001Z,12.50
2019-04-14T00:52:37.314Z,13.37
2019-04-14T00:55:07.561Z,13.40
2019-04-14T00:57:37.650Z,12.73
2019-04-14T01:00:08.211Z,14.03
2019-04-14T01:02:38.528Z,13.77
2019-04-14T01:05:08.927Z,14.97
2019-04-14T01:07:39.155Z,15.17
2019-04-14T01:10:08.666Z,17.13
2019-04-14T01:12:38.737Z,16.53
2019-04-14T01:15:09.218Z,17.43
2019-04-14T01:17:39.519Z,16.67
2019-04-14T01:20:10.127Z,15.60
2019-04-14T01:22:40.184Z,14.80
2019-04-14T01:25:10.653Z,16.17
2019-04-14T01:27:40.637Z,15.00
2019-04-14T01:30:11.246Z,16.07
2019-04-14T01:32:41.535Z,15.03
2019-04-14T01:35:11.729Z,16.20
2019-04-14T01:37:41.923Z,15.77
2019-04-14T01:40:12.091Z,16.67
2019-04-14T01:42:42.084Z,16.30
2019-04-14T01:45:14.260Z,15.87
2019-04-14T01:47:44.528Z,16.17
2019-04-14T01:50:14.857Z,15.70
2019-04-14T01:53:03.537Z,18.33
2019-04-14T01:56:05.569Z,16.80
2019-04-14T01:58:44.667Z,17.70
2019-04-14T02:01:33.127Z,17.00
2019-04-14T02:04:02.957Z,17.87
2019-04-14T02:06:33.341Z,17.23
2019-04-14T02:09:03.727Z,16.57
2019-04-14T02:11:33.423Z,18.00
2019-04-14T02:14:03.678Z,16.73
2019-04-14T02:16:40.326Z,17.77
2019-04-14T02:19:04.638Z,18.37
2019-04-14T02:21:34.555Z,17.23
2019-04-14T02:24:04.918Z,17.53
2019-04-14T02:26:35.125Z,17.47
2019-04-14T02:29:05.660Z,16.93
2019-04-14T02:32:01.478Z,17.30
2019-04-14T02:34:39.174Z,17.87
2019-04-14T02:37:04.414Z,16.43
2019-04-14T02:39:38.664Z,17.93
2019-04-14T02:44:51.853Z,17.07
2019-04-14T02:47:47.281Z,16.83
2019-04-14T02:50:05.403Z,16.97
2019-04-14T02:52:35.368Z,17.53
2019-04-14T02:55:02.965Z,17.30
2019-04-14T03:00:11.338Z,18.20
2019-04-14T03:02:44.154Z,19.67
2019-04-14T03:05:13.329Z,17.70
2019-04-14T03:07:54.240Z,18.60
2019-04-14T03:10:25.939Z,17.77
2019-04-14T03:13:01.774Z,17.23
2019-04-14T03:15:26.731Z,17.17
2019-04-14T03:21:04.349Z,17.57
2019-04-14T03:24:07.165Z,17.00
2019-04-14T03:26:44.709Z,17.73
2019-04-14T03:29:21.627Z,17.23
2019-04-14T03:34:34.398Z,18.20
2019-04-14T03:37:33.626Z,18.30
2019-04-14T03:39:23.501Z,18.33
2019-04-14T03:41:53.086Z,18.47
2019-04-14T03:44:28.110Z,16.60
2019-04-14T03:47:03.450Z,18.80
2019-04-14T03:49:31.797Z,19.13
2019-04-14T03:51:57.801Z,18.77
2019-04-14T03:54:20.173Z,18.40
2019-04-14T03:57:03.972Z,20.43
2019-04-14T03:59:34.593Z,19.53
2019-04-14T04:02:05.292Z,20.63
2019-04-14T04:04:35.772Z,20.50
2019-04-14T04:07:06.219Z,21.07
2019-04-14T04:09:39.356Z,19.13
2019-04-14T04:12:09.596Z,20.90
2019-04-14T04:14:39.839Z,21.70
2019-04-14T04:17:28.220Z,20.13
2019-04-14T04:20:23.723Z,21.53
2019-04-14T04:23:09.467Z,21.27
2019-04-14T04:25:49.382Z,22.13
2019-04-14T04:28:53.946Z,21.57
2019-04-14T04:31:48.371Z,20.27
2019-04-14T04:34:36.668Z,21.03
2019-04-14T04:37:25.678Z,20.37
2019-04-14T04:39:56.044Z,20.07
2019-04-14T04:42:26.517Z,21.47
2019-04-14T04:44:57.396Z,22.67
2019-04-14T04:47:27.373Z,22.53
2019-04-14T04:49:57.581Z,22.10
2019-04-14T04:52:28.053Z,23.57
2019-04-14T04:54:58.077Z,23.40
2019-04-14T04:57:28.519Z,23.33
2019-04-14T04:59:58.215Z,23.17
2019-04-14T05:02:28.687Z,24.03
2019-04-14T05:04:59.080Z,25.27
2019-04-14T05:07:29.473Z,24.37
2019-04-14T05:10:32.917Z,24.67
2019-04-14T05:13:18.746Z,25.13
2019-04-14T05:15:53.862Z,26.00
2019-04-14T05:18:26.892Z,25.03
2019-04-14T05:20:57.338Z,25.00
2019-04-14T05:23:27.789Z,25.30
2019-04-14T05:25:58.138Z,25.30
2019-04-14T05:28:28.730Z,25.87
2019-04-14T05:30:58.934Z,25.43
2019-04-14T05:33:29.343Z,24.77
2019-04-14T05:35:59.886Z,25.90
2019-04-14T05:38:32.117Z,26.80
2019-04-14T05:41:00.448Z,25.40
2019-04-14T05:43:38.589Z,26.33
2019-04-14T05:46:01.323Z,26.70
2019-04-14T05:48:31.499Z,25.63
2019-04-14T05:51:01.930Z,26.57
2019-04-14T05:53:32.575Z,27.57
2019-04-14T05:56:01.910Z,29.43
2019-04-14T05:58:31.782Z,29.83
2019-04-14T06:01:00.989Z,28.23
2019-04-14T06:03:30.222Z,29.37
2019-04-14T06:05:59.404Z,30.07
2019-04-14T06:08:28.652Z,29.30
2019-04-14T06:10:57.809Z,29.47
2019-04-14T06:13:27.358Z,28.87
2019-04-14T06:15:56.888Z,28.23
2019-04-14T06:18:26.374Z,28.33
2019-04-14T06:20:55.812Z,25.27
2019-04-14T06:23:25.353Z,25.73
2019-04-14T06:25:54.913Z,26.60
2019-04-14T06:28:24.420Z,26.43
2019-04-14T06:31:18.802Z,26.77
2019-04-14T06:34:01.468Z,26.10
2019-04-14T06:36:51.913Z,27.57
2019-04-14T06:39:29.850Z,26.57
2019-04-14T06:41:59.021Z,29.57
2019-04-14T06:44:28.280Z,28.17
2019-04-14T06:46:57.461Z,28.77
2019-04-14T06:49:26.684Z,26.93
2019-04-14T06:51:58.496Z,27.30
2019-04-14T06:54:27.656Z,29.17
2019-04-14T06:56:56.816Z,29.23
2019-04-14T06:59:26.159Z,28.53
2019-04-14T07:01:55.759Z,26.60
2019-04-14T07:04:24.909Z,28.83
2019-04-14T07:06:54.098Z,26.83
2019-04-14T07:09:23.408Z,27.47
2019-04-14T07:11:52.720Z,28.17
2019-04-14T07:14:22.355Z,29.07
2019-04-14T07:16:51.635Z,28.30
2019-04-14T07:19:20.927Z,28.73
2019-04-14T07:21:50.095Z,28.67
2019-04-14T07:24:19.331Z,28.47
2019-04-14T07:26:48.529Z,30.20
2019-04-14T07:29:17.700Z,33.63
2019-04-14T07:32:17.961Z,37.13
2019-04-14T07:35:01.290Z,36.47
2019-04-14T07:37:56.189Z,40.87
2019-04-14T07:40:43.479Z,42.23
2019-04-14T07:43:34.433Z,43.60
2019-04-14T07:46:11.293Z,37.53
2019-04-14T07:49:02.535Z,36.90
2019-04-14T07:51:48.994Z,40.30
2019-04-14T07:54:36.325Z,40.90
2019-04-14T07:57:36.813Z,44.90
2019-04-14T08:00:10.678Z,45.03
2019-04-14T08:03:00.346Z,44.70
2019-04-14T08:05:32.627Z,44.37
2019-04-14T08:08:01.806Z,43.00
2019-04-14T08:10:31.531Z,41.20
2019-04-14T08:13:00.709Z,41.93
2019-04-14T08:15:29.979Z,41.80
2019-04-14T08:17:59.675Z,42.40
2019-04-14T08:20:28.832Z,43.60
2019-04-14T08:22:58.307Z,43.33
2019-04-14T08:25:27.549Z,47.40
2019-04-14T08:27:57.123Z,56.33
2019-04-14T08:30:26.343Z,59.87
2019-04-14T08:32:55.607Z,59.33
2019-04-14T08:35:24.776Z,64.27
2019-04-14T08:37:54.029Z,61.47
2019-04-14T08:40:23.213Z,64.80
2019-04-14T08:43:20.591Z,66.60
2019-04-14T08:46:00.714Z,67.30
2019-04-14T08:49:07.584Z,55.60
2019-04-14T08:52:07.811Z,50.03
2019-04-14T08:54:55.195Z,51.30
2019-04-14T08:57:40.533Z,48.10
2019-04-14T09:00:28.927Z,46.37
2019-04-14T09:03:16.207Z,47.87
2019-04-14T09:06:10.965Z,48.03
2019-04-14T09:08:49.726Z,49.80
2019-04-14T09:11:24.323Z,50.83
2019-04-14T09:13:53.803Z,54.57
2019-04-14T09:16:23.330Z,52.30
2019-04-14T09:18:53.805Z,50.03
2019-04-14T09:21:23.652Z,51.93
2019-04-14T09:23:52.959Z,49.13
2019-04-14T09:26:22.671Z,52.23
2019-04-14T09:28:51.839Z,53.33
2019-04-14T09:31:21.082Z,47.57
2019-04-14T09:33:50.273Z,49.50
2019-04-14T09:36:19.505Z,44.67
2019-04-14T09:38:48.669Z,48.17
2019-04-14T09:41:17.939Z,47.00
2019-04-14T09:43:47.729Z,47.87
2019-04-14T09:46:16.921Z,47.63
2019-04-14T09:48:46.151Z,48.73
2019-04-14T09:51:15.317Z,46.10
2019-04-14T09:53:44.915Z,47.90
2019-04-14T09:56:14.537Z,45.27
2019-04-14T09:58:43.764Z,42.67
2019-04-14T10:01:13.427Z,41.00
2019-04-14T10:03:42.697Z,41.30
2019-04-14T10:06:12.016Z,41.10
2019-04-14T10:08:41.250Z,40.33
2019-04-14T10:11:10.424Z,39.67
2019-04-14T10:13:39.977Z,38.33
2019-04-14T10:16:09.201Z,39.20
2019-04-14T10:18:38.443Z,39.43
2019-04-14T10:21:17.230Z,37.40
2019-04-14T10:23:39.621Z,39.13
2019-04-14T10:26:09.301Z,39.43
2019-04-14T10:28:38.479Z,37.50
2019-04-14T10:31:08.095Z,37.10
2019-04-14T10:33:37.262Z,37.60
2019-04-14T10:36:06.839Z,37.57
2019-04-14T10:38:36.031Z,36.73
2019-04-14T10:41:05.610Z,36.77
2019-04-14T10:43:35.419Z,37.67
2019-04-14T10:46:04.947Z,36.40
2019-04-14T10:48:34.223Z,35.00
2019-04-14T10:51:03.399Z,34.87
2019-04-14T10:53:32.565Z,33.03
2019-04-14T10:56:02.274Z,33.80
2019-04-14T10:58:31.587Z,34.40
2019-04-14T11:01:01.161Z,33.50
2019-04-14T11:03:30.762Z,34.30
2019-04-14T11:06:14.637Z,32.30
2019-04-14T11:08:43.809Z,32.97
2019-04-14T11:11:13.047Z,32.87
2019-04-14T11:13:42.222Z,34.13
2019-04-14T11:16:11.471Z,33.03
2019-04-14T11:18:40.832Z,34.93
2019-04-14T11:21:10.001Z,36.20
2019-04-14T11:23:40.188Z,36.33
2019-04-14T11:26:09.489Z,34.37
2019-04-14T11:28:39.575Z,34.60
2019-04-14T11:31:36.489Z,35.47
2019-04-14T11:34:11.400Z,36.57
2019-04-14T11:36:51.143Z,39.30
2019-04-14T11:39:20.963Z,39.23
2019-04-14T11:41:50.512Z,40.47
2019-04-14T11:44:27.342Z,38.53
2019-04-14T11:47:05.311Z,38.30
2019-04-14T11:49:34.554Z,38.40
2019-04-14T11:52:04.471Z,39.07
2019-04-14T11:54:33.737Z,39.70
2019-04-14T11:57:02.981Z,38.07
2019-04-14T11:59:52.164Z,35.63
2019-04-14T12:02:47.355Z,34.67
2019-04-14T12:05:24.737Z,35.90
2019-04-14T12:08:11.568Z,37.43
2019-04-14T12:10:40.880Z,36.50
2019-04-14T12:13:10.403Z,35.97
2019-04-14T12:15:39.910Z,37.33
2019-04-14T12:18:09.423Z,36.17
2019-04-14T12:20:39.104Z,37.13
2019-04-14T12:23:08.602Z,37.83
2019-04-14T12:25:37.799Z,39.20
2019-04-14T12:28:07.069Z,39.27
2019-04-14T12:30:36.285Z,40.00
2019-04-14T12:33:05.867Z,39.50
2019-04-14T12:35:35.124Z,41.73
2019-04-14T12:38:04.392Z,41.20
2019-04-14T12:40:33.695Z,41.40
2019-04-14T12:43:12.790Z,42.03
2019-04-14T12:46:19.479Z,41.70
2019-04-14T12:48:56.122Z,43.73
2019-04-14T12:51:47.099Z,42.07
2019-04-14T12:54:16.371Z,43.03
2019-04-14T12:56:45.533Z,44.47
2019-04-14T12:59:23.121Z,49.50
2019-04-14T13:02:00.975Z,51.50
2019-04-14T13:04:30.569Z,52.37
2019-04-14T13:07:00.075Z,51.23
2019-04-14T13:09:29.712Z,49.53
2019-04-14T13:11:58.933Z,49.23
2019-04-14T13:14:28.125Z,46.73
2019-04-14T13:16:57.305Z,45.87
2019-04-14T13:19:26.512Z,46.27
2019-04-14T13:21:55.709Z,45.20
2019-04-14T13:24:25.303Z,44.97
2019-04-14T13:26:54.821Z,45.70
2019-04-14T13:29:24.071Z,43.87
2019-04-14T13:31:53.323Z,43.87
2019-04-14T13:34:22.489Z,43.53
2019-04-14T13:36:52.265Z,43.50
2019-04-14T13:39:21.683Z,43.73
2019-04-14T13:41:50.932Z,45.57
2019-04-14T13:44:20.118Z,42.53
2019-04-14T13:46:49.766Z,44.60
2019-04-14T13:49:18.986Z,45.83
2019-04-14T13:51:48.331Z,46.03
2019-04-14T13:54:17.949Z,44.77
2019-04-14T13:56:47.151Z,44.83
2019-04-14T13:59:16.429Z,44.33
2019-04-14T14:01:50.593Z,43.10
2019-04-14T14:04:20.334Z,40.87
2019-04-14T14:06:49.958Z,40.60
2019-04-14T14:09:19.946Z,41.03
2019-04-14T14:12:07.084Z,39.40
2019-04-14T14:14:54.316Z,40.00
2019-04-14T14:17:42.758Z,39.37
2019-04-14T14:20:48.242Z,39.07
2019-04-14T14:23:41.878Z,40.23
2019-04-14T14:26:31.320Z,38.63
2019-04-14T14:29:00.603Z,38.43
2019-04-14T14:31:30.387Z,36.83
2019-04-14T14:34:00.108Z,36.83
2019-04-14T14:36:29.429Z,36.53
2019-04-14T14:38:58.728Z,38.87
2019-04-14T14:41:28.286Z,36.87
2019-04-14T14:43:57.565Z,36.57
2019-04-14T14:46:46.153Z,36.03
2019-04-14T14:49:26.790Z,36.20
2019-04-14T14:52:16.255Z,38.43
2019-04-14T14:54:45.516Z,36.87
2019-04-14T14:57:15.195Z,36.70
2019-04-14T14:59:44.476Z,36.27
2019-04-14T15:02:13.736Z,37.07
2019-04-14T15:04:42.988Z,36.30
2019-04-14T15:07:12.611Z,36.40
2019-04-14T15:09:44.053Z,38.47
2019-04-14T15:12:13.686Z,35.73
2019-04-14T15:14:42.996Z,35.53
2019-04-14T15:17:12.357Z,36.20
2019-04-14T15:19:41.626Z,37.00
2019-04-14T15:22:11.296Z,38.43
2019-04-14T15:24:41.211Z,37.33
2019-04-14T15:27:10.567Z,37.27
2019-04-14T15:29:39.846Z,36.73
2019-04-14T15:32:09.500Z,38.13
2019-04-14T15:34:39.110Z,36.00
2019-04-14T15:37:08.712Z,36.87
2019-04-14T15:39:38.284Z,37.03
2019-04-14T15:42:07.835Z,38.07
2019-04-14T15:44:37.174Z,38.10
2019-04-14T15:47:06.650Z,37.77
2019-04-14T15:49:35.931Z,37.23
2019-04-14T15:52:05.628Z,37.13
2019-04-14T15:54:34.915Z,36.97
2019-04-14T15:57:32.590Z,36.47
2019-04-14T16:00:19.959Z,38.03
2019-04-14T16:02:58.809Z,38.40
2019-04-14T16:05:47.299Z,37.50
2019-04-14T16:08:21.732Z,37.20
2019-04-14T16:10:58.923Z,37.90
2019-04-14T16:13:49.897Z,37.23
2019-04-14T16:16:36.688Z,37.03
2019-04-14T16:19:31.276Z,38.37
2019-04-14T16:22:00.543Z,37.13
2019-04-14T16:24:29.834Z,38.83
2019-04-14T16:27:21.138Z,38.07
2019-04-14T16:29:59.556Z,38.63
2019-04-14T16:32:51.303Z,36.67
2019-04-14T16:35:23.884Z,35.50
2019-04-14T16:37:53.156Z,35.73
2019-04-14T16:40:22.369Z,36.37
2019-04-14T16:42:51.630Z,35.83
2019-04-14T16:45:21.142Z,37.03
2019-04-14T16:47:50.338Z,36.60
2019-04-14T16:50:19.624Z,37.57
2019-04-14T16:52:56.704Z,35.83
2019-04-14T16:55:46.822Z,36.13
2019-04-14T16:58:46.928Z,36.70
2019-04-14T17:01:30.952Z,38.03
2019-04-14T17:04:00.123Z,37.37
2019-04-14T17:06:29.537Z,38.47
2019-04-14T17:08:58.717Z,37.53
2019-04-14T17:11:28.550Z,36.70
2019-04-14T17:14:20.453Z,36.97
2019-04-14T17:17:01.096Z,38.00
2019-04-14T17:19:51.050Z,39.17
2019-04-14T17:22:40.565Z,37.47
2019-04-14T17:25:27.317Z,36.30
2019-04-14T17:28:14.336Z,35.50
2019-04-14T17:31:02.633Z,37.90
2019-04-14T17:33:36.209Z,36.23
2019-04-14T17:36:30.450Z,37.13
2019-04-14T17:39:31.957Z,39.47
2019-04-14T17:42:23.773Z,37.27
2019-04-14T17:45:12.429Z,38.23
2019-04-14T17:47:54.795Z,37.53
2019-04-14T17:50:46.136Z,38.80
2019-04-14T17:53:43.585Z,36.37
2019-04-14T17:56:30.395Z,36.73
2019-04-14T17:59:19.008Z,36.63
2019-04-14T18:02:06.101Z,35.70
2019-04-14T18:04:44.669Z,38.63
2019-04-14T18:07:18.585Z,35.43
2019-04-14T18:10:13.477Z,36.97
2019-04-14T18:13:04.750Z,36.47
2019-04-14T18:15:40.434Z,36.63
2019-04-14T18:18:19.678Z,37.80
2019-04-14T18:20:52.451Z,34.77
2019-04-14T18:23:21.635Z,36.90
2019-04-14T18:25:50.806Z,36.47
2019-04-14T18:28:36.694Z,35.77
2019-04-14T18:31:17.892Z,36.87
2019-04-14T18:34:21.376Z,37.20
2019-04-14T18:36:55.611Z,38.17
2019-04-14T18:39:49.505Z,37.70
2019-04-14T18:42:39.606Z,39.53
2019-04-14T18:45:18.610Z,39.03
2019-04-14T18:47:55.704Z,39.73
2019-04-14T18:50:40.776Z,41.40
2019-04-14T18:53:14.773Z,41.40
2019-04-14T18:55:56.474Z,43.83
2019-04-14T18:58:51.242Z,48.33
2019-04-14T19:01:23.020Z,56.07
2019-04-14T19:03:52.263Z,53.67
2019-04-14T19:06:22.128Z,54.10
2019-04-14T19:08:52.013Z,51.67
2019-04-14T19:11:49.042Z,50.93
2019-04-14T19:14:22.465Z,50.17
2019-04-14T19:16:57.198Z,49.70
2019-04-14T19:19:26.458Z,48.83
2019-04-14T19:21:55.768Z,50.10
2019-04-14T19:24:25.407Z,50.47
2019-04-14T19:26:54.577Z,49.77
2019-04-14T19:29:24.102Z,50.97
2019-04-14T19:31:53.266Z,48.00
2019-04-14T19:34:22.443Z,46.93
2019-04-14T19:36:51.910Z,44.77
2019-04-14T19:39:21.157Z,44.40
2019-04-14T19:41:50.315Z,45.70
2019-04-14T19:44:19.837Z,44.20
2019-04-14T19:46:49.088Z,46.67
2019-04-14T19:49:18.939Z,48.63
2019-04-14T19:51:48.487Z,47.47
2019-04-14T19:54:17.997Z,46.53
2019-04-14T19:56:47.205Z,47.47
2019-04-14T19:59:16.415Z,47.23
2019-04-14T20:01:45.634Z,46.67
2019-04-14T20:04:14.787Z,47.20
2019-04-14T20:06:44.104Z,46.17
2019-04-14T20:09:13.721Z,47.33
2019-04-14T20:11:43.008Z,46.03
2019-04-14T20:14:12.606Z,46.13
2019-04-14T20:17:00.833Z,45.03
2019-04-14T20:19:38.022Z,45.80
2019-04-14T20:22:25.319Z,44.93
2019-04-14T20:24:58.847Z,44.37
2019-04-14T20:27:46.058Z,46.00
2019-04-14T20:30:23.844Z,43.77
2019-04-14T20:32:53.279Z,44.73
2019-04-14T20:35:22.439Z,45.00
2019-04-14T20:37:51.833Z,45.10
2019-04-14T20:40:21.473Z,44.83
2019-04-14T20:42:51.141Z,45.73
2019-04-14T20:45:20.383Z,46.10
2019-04-14T20:47:49.601Z,47.27
2019-04-14T20:50:18.901Z,46.73
2019-04-14T20:52:48.430Z,44.60
2019-04-14T20:55:18.011Z,45.43
2019-04-14T20:57:47.431Z,46.63
2019-04-14T21:00:16.692Z,45.73
2019-04-14T21:03:03.893Z,46.70
2019-04-14T21:05:56.127Z,45.60
2019-04-14T21:08:53.631Z,42.63
2019-04-14T21:11:29.049Z,41.17
2019-04-14T21:14:17.239Z,42.43
2019-04-14T21:17:04.698Z,40.07
2019-04-14T21:19:41.605Z,40.47
2019-04-14T21:22:27.415Z,39.43
2019-04-14T21:25:14.272Z,38.47
2019-04-14T21:27:53.869Z,36.23
2019-04-14T21:30:27.517Z,35.27
2019-04-14T21:33:09.129Z,34.27
2019-04-14T21:36:03.837Z,32.07
2019-04-14T21:39:07.205Z,30.63
2019-04-14T21:41:36.817Z,30.53
2019-04-14T21:44:06.699Z,30.00
2019-04-14T21:46:36.308Z,29.43
2019-04-14T21:49:05.792Z,30.03
2019-04-14T21:51:54.100Z,28.73
2019-04-14T21:54:23.363Z,28.33
2019-04-14T21:57:10.480Z,27.83
2019-04-14T21:59:55.684Z,28.03
2019-04-14T22:02:43.325Z,27.77
2019-04-14T22:05:24.907Z,26.27
2019-04-14T22:08:06.897Z,27.47
2019-04-14T22:10:49.393Z,26.20
2019-04-14T22:13:18.588Z,26.83
2019-04-14T22:15:48.161Z,26.93
2019-04-14T22:18:18.232Z,26.33
2019-04-14T22:20:47.784Z,27.17
2019-04-14T22:23:17.034Z,26.43
2019-04-14T22:25:46.197Z,25.03
2019-04-14T22:28:15.694Z,26.20
2019-04-14T22:30:44.931Z,25.27
2019-04-14T22:33:14.101Z,25.50
2019-04-14T22:35:43.339Z,25.93
2019-04-14T22:38:12.661Z,25.57
2019-04-14T22:40:41.913Z,24.93
2019-04-14T22:43:11.595Z,24.30
2019-04-14T22:45:40.841Z,23.80
2019-04-14T22:48:10.393Z,24.57
2019-04-14T22:50:39.877Z,23.97
2019-04-14T22:53:09.122Z,24.10
2019-04-14T22:55:38.290Z,23.73
2019-04-14T22:58:07.455Z,24.50
2019-04-14T23:00:43.989Z,24.63
2019-04-14T23:03:41.419Z,23.97
2019-04-14T23:06:18.182Z,24.17
2019-04-14T23:09:12.242Z,24.43
2019-04-14T23:12:03.396Z,23.50
2019-04-14T23:14:53.187Z,23.57
2019-04-14T23:17:42.947Z,22.90
2019-04-14T23:20:26.700Z,23.97
2019-04-14T23:23:12.559Z,22.27
2019-04-14T23:25:42.657Z,23.43
2019-04-14T23:28:11.809Z,22.13
2019-04-14T23:30:41.137Z,22.83
2019-04-14T23:33:10.319Z,22.73
2019-04-14T23:35:39.575Z,21.97
2019-04-14T23:38:08.714Z,22.07
2019-04-14T23:40:37.912Z,22.53
2019-04-14T23:43:07.427Z,22.73
2019-04-14T23:45:37.053Z,22.57
2019-04-14T23:48:06.285Z,23.10
2019-04-14T23:50:35.534Z,23.00
2019-04-14T23:53:04.970Z,23.30
2019-04-14T23:55:34.541Z,23.03
2019-04-14T23:58:04.595Z,23.23
